Jamestown, North Dakota
Current Conditions -  °F | °C
As of 6:56 PM on Tuesday 21 Oct 2014 (Local Time) from KJMS Reporting Station
Clear Clear  
Wind Chill: 65°   Ceiling: Unl
Heat Index: 65°   Visibility: 10mi
Dew Point: 45°   Wind: 15mph
Humidity: 48%   Direction: 130°SE
Pressure: 29.77"   Gusts: NA
Location:  46.91°N, 98.71°W
Report Text: KJMS 212356Z AUTO 13013KT 10SM CLR 18/07 A2977 RMK AO2 SLP083 T01830072 10244 20183 55002
Loading
Personal Weather Stations






























Interactive Weather Map
Tropical Storm Tracking
New forecast layout! Learn more

10-Day Weather Forecast

Advertisements
Track Severe Weather on mobile